createdAt,value
2023-03-08T00:00:10.659Z,60.29
2023-03-08T00:01:16.478Z,59.97
2023-03-08T00:02:18.674Z,60.34
2023-03-08T00:03:20.476Z,60.40
2023-03-08T00:04:22.369Z,60.11
2023-03-08T00:05:24.421Z,60.71
2023-03-08T00:06:26.940Z,60.37
2023-03-08T00:07:28.769Z,60.04
2023-03-08T00:08:30.614Z,60.67
2023-03-08T00:09:32.454Z,60.63
2023-03-08T00:10:34.423Z,60.81
2023-03-08T00:11:36.341Z,60.22
2023-03-08T00:12:38.183Z,60.87
2023-03-08T00:13:40.271Z,60.81
2023-03-08T00:14:42.132Z,60.78
2023-03-08T00:15:44.738Z,60.68
2023-03-08T00:16:46.645Z,60.16
2023-03-08T00:17:48.716Z,60.16
2023-03-08T00:18:50.602Z,60.94
2023-03-08T00:19:52.581Z,60.39
2023-03-08T00:21:01.031Z,60.91
2023-03-08T00:22:02.883Z,60.82
2023-03-08T00:23:04.834Z,60.82
2023-03-08T00:24:06.815Z,61.02
2023-03-08T00:25:09.381Z,61.11
2023-03-08T00:26:12.039Z,61.64
2023-03-08T00:27:13.959Z,61.53
2023-03-08T00:28:15.826Z,61.84
2023-03-08T00:29:17.779Z,61.69
2023-03-08T00:30:20.131Z,62.51
2023-03-08T00:31:22.162Z,62.55
2023-03-08T00:32:25.738Z,63.00
2023-03-08T00:33:28.298Z,62.76
2023-03-08T00:34:30.145Z,62.79
2023-03-08T00:35:32.080Z,62.58
2023-03-08T00:36:33.916Z,62.84
2023-03-08T00:37:35.867Z,62.88
2023-03-08T00:38:37.775Z,63.29
2023-03-08T00:39:40.036Z,63.62
2023-03-08T00:40:41.915Z,64.19
2023-03-08T00:41:43.901Z,64.94
2023-03-08T00:42:45.891Z,65.05
2023-03-08T00:43:47.965Z,65.57
2023-03-08T00:44:49.806Z,65.60
2023-03-08T00:45:53.174Z,66.64
2023-03-08T00:46:55.704Z,66.27
2023-03-08T00:47:57.728Z,65.90
2023-03-08T00:49:00.184Z,66.60
2023-03-08T00:50:02.061Z,66.56
2023-03-08T00:51:04.192Z,66.62
2023-03-08T00:52:06.397Z,66.88
2023-03-08T00:53:08.908Z,67.36
2023-03-08T00:54:10.787Z,67.06
2023-03-08T00:55:12.598Z,66.78
2023-03-08T00:56:14.948Z,67.51
2023-03-08T00:57:16.847Z,66.46
2023-03-08T00:58:19.209Z,66.19
2023-03-08T00:59:21.056Z,67.16
2023-03-08T01:00:23.060Z,66.87
2023-03-08T01:01:24.984Z,67.60
2023-03-08T01:02:26.796Z,67.98
2023-03-08T01:03:28.705Z,68.70
2023-03-08T01:04:32.907Z,68.37
2023-03-08T01:05:35.380Z,68.28
2023-03-08T01:06:37.191Z,68.26
2023-03-08T01:07:39.132Z,68.47
2023-03-08T01:08:42.726Z,68.48
2023-03-08T01:09:44.614Z,68.16
2023-03-08T01:10:50.131Z,68.91
2023-03-08T01:11:51.971Z,68.70
2023-03-08T01:12:56.179Z,68.86
2023-03-08T01:13:57.970Z,68.08
2023-03-08T01:14:59.760Z,68.61
2023-03-08T01:16:02.105Z,68.20
2023-03-08T01:17:04.042Z,67.83
2023-03-08T01:18:06.547Z,68.41
2023-03-08T01:19:08.350Z,68.59
2023-03-08T01:20:10.566Z,69.13
2023-03-08T01:21:12.744Z,68.80
2023-03-08T01:22:14.557Z,68.54
2023-03-08T01:23:16.501Z,68.83
2023-03-08T01:24:18.390Z,69.62
2023-03-08T01:25:20.426Z,70.57
2023-03-08T01:26:23.505Z,71.47
2023-03-08T01:27:25.385Z,72.18
2023-03-08T01:28:27.417Z,72.20
2023-03-08T01:29:29.338Z,72.38
2023-03-08T01:30:31.348Z,72.51
2023-03-08T01:31:33.229Z,72.75
2023-03-08T01:32:35.098Z,72.97
2023-03-08T01:33:37.035Z,73.35
2023-03-08T01:34:39.380Z,72.66
2023-03-08T01:35:41.330Z,73.20
2023-03-08T01:36:43.214Z,72.57
2023-03-08T01:37:45.090Z,72.23
2023-03-08T01:38:47.682Z,71.99
2023-03-08T01:39:49.528Z,72.31
2023-03-08T01:40:55.841Z,73.13
2023-03-08T01:41:57.800Z,73.52
2023-03-08T01:42:59.675Z,73.94
2023-03-08T01:44:01.476Z,74.57
2023-03-08T01:45:23.233Z,73.95
2023-03-08T01:46:27.094Z,74.77
2023-03-08T01:47:33.061Z,75.30
2023-03-08T01:48:44.699Z,75.12
2023-03-08T01:49:49.016Z,75.93
2023-03-08T01:50:51.073Z,75.77
2023-03-08T01:52:00.681Z,76.76
2023-03-08T01:53:02.640Z,76.84
2023-03-08T01:54:09.952Z,77.01
2023-03-08T01:55:13.274Z,77.22
2023-03-08T01:56:16.846Z,78.16
2023-03-08T01:57:30.413Z,79.42
2023-03-08T01:58:32.326Z,79.00
2023-03-08T01:59:34.916Z,78.64
2023-03-08T02:00:38.387Z,78.04
2023-03-08T02:01:40.807Z,78.13
2023-03-08T02:02:45.421Z,78.38
2023-03-08T02:03:48.309Z,78.08
2023-03-08T02:04:50.148Z,78.24
2023-03-08T02:05:51.940Z,77.84
2023-03-08T02:06:53.793Z,77.36
2023-03-08T02:07:55.694Z,77.21
2023-03-08T02:08:58.141Z,77.20
2023-03-08T02:10:00.013Z,76.96
2023-03-08T02:11:02.315Z,76.62
2023-03-08T02:12:07.357Z,76.33
2023-03-08T02:13:09.947Z,75.76
2023-03-08T02:14:11.856Z,75.72
2023-03-08T02:15:15.729Z,75.38
2023-03-08T02:16:18.356Z,75.39
2023-03-08T02:17:20.248Z,75.90
2023-03-08T02:18:22.469Z,75.56
2023-03-08T02:19:29.646Z,75.70
2023-03-08T02:20:34.686Z,75.00
2023-03-08T02:21:36.607Z,74.86
2023-03-08T02:22:39.408Z,75.25
2023-03-08T02:23:41.388Z,75.86
2023-03-08T02:24:43.596Z,75.59
2023-03-08T02:25:51.745Z,75.49
2023-03-08T02:26:58.470Z,75.90
2023-03-08T02:28:00.911Z,76.64
2023-03-08T02:29:02.802Z,75.86
2023-03-08T02:30:04.836Z,75.50
2023-03-08T02:31:06.789Z,76.42
2023-03-08T02:32:09.192Z,76.56
2023-03-08T02:33:11.250Z,76.13
2023-03-08T02:34:13.198Z,76.63
2023-03-08T02:35:15.094Z,76.46
2023-03-08T02:36:16.997Z,76.21
2023-03-08T02:37:18.936Z,76.57
2023-03-08T02:38:21.491Z,76.92
2023-03-08T02:39:23.370Z,77.36
2023-03-08T02:40:25.634Z,78.29
2023-03-08T02:41:27.571Z,78.04
2023-03-08T02:42:29.524Z,77.66
2023-03-08T02:43:31.489Z,77.67
2023-03-08T02:44:33.358Z,77.89
2023-03-08T02:45:35.447Z,77.99
2023-03-08T02:46:37.360Z,77.79
2023-03-08T02:47:39.215Z,77.59
2023-03-08T02:48:41.067Z,77.11
2023-03-08T02:49:42.973Z,76.97
2023-03-08T02:50:44.921Z,76.81
2023-03-08T02:51:46.793Z,77.04
2023-03-08T02:52:48.777Z,76.94
2023-03-08T02:53:50.574Z,76.95
2023-03-08T02:54:54.103Z,76.87
2023-03-08T02:55:56.092Z,76.96
2023-03-08T02:56:58.009Z,76.97
2023-03-08T02:57:59.879Z,76.96
2023-03-08T02:59:01.733Z,77.25
2023-03-08T03:00:04.361Z,77.35
2023-03-08T03:01:11.116Z,77.16
2023-03-08T03:02:13.245Z,77.09
2023-03-08T03:03:15.118Z,77.31
2023-03-08T03:04:17.007Z,76.59
2023-03-08T03:05:19.031Z,76.44
2023-03-08T03:06:20.986Z,76.24
2023-03-08T03:07:23.017Z,76.84
2023-03-08T03:08:24.945Z,77.12
2023-03-08T03:09:26.936Z,76.19
2023-03-08T03:10:28.875Z,76.43
2023-03-08T03:11:30.737Z,76.54
2023-03-08T03:12:32.744Z,76.55
2023-03-08T03:13:34.606Z,76.67
2023-03-08T03:14:36.481Z,76.61
2023-03-08T03:15:39.760Z,76.94
2023-03-08T03:16:41.612Z,76.77
2023-03-08T03:17:43.476Z,76.70
2023-03-08T03:18:45.329Z,77.28
2023-03-08T03:19:47.240Z,77.09
2023-03-08T03:20:49.092Z,77.19
2023-03-08T03:21:51.103Z,77.51
2023-03-08T03:22:53.066Z,77.54
2023-03-08T03:23:55.333Z,77.89
2023-03-08T03:24:57.223Z,77.85
2023-03-08T03:26:04.963Z,78.04
2023-03-08T03:27:06.879Z,77.67
2023-03-08T03:28:08.737Z,77.21
2023-03-08T03:29:10.666Z,76.98
2023-03-08T03:30:13.340Z,76.71
2023-03-08T03:31:16.683Z,76.38
2023-03-08T03:32:18.703Z,75.75
2023-03-08T03:33:20.617Z,75.76
2023-03-08T03:34:22.624Z,75.17
2023-03-08T03:35:24.500Z,75.22
2023-03-08T03:36:26.410Z,75.21
2023-03-08T03:37:28.325Z,75.18
2023-03-08T03:38:30.365Z,75.20
2023-03-08T03:39:35.725Z,75.24
2023-03-08T03:40:37.593Z,75.57
2023-03-08T03:41:39.394Z,75.86
2023-03-08T03:42:41.227Z,75.56
2023-03-08T03:43:43.231Z,75.61
2023-03-08T03:44:45.090Z,75.14
2023-03-08T03:45:55.076Z,75.12
2023-03-08T03:46:57.165Z,75.15
2023-03-08T03:47:59.048Z,75.68
2023-03-08T03:49:01.001Z,75.73
2023-03-08T03:50:02.924Z,75.40
2023-03-08T03:51:06.363Z,75.19
2023-03-08T03:52:08.164Z,74.93
2023-03-08T03:53:10.088Z,75.33
2023-03-08T03:54:12.003Z,75.19
2023-03-08T03:55:13.790Z,75.28
2023-03-08T03:56:17.133Z,74.97
2023-03-08T03:57:20.182Z,75.26
2023-03-08T03:58:22.157Z,75.46
2023-03-08T03:59:26.554Z,75.47
2023-03-08T04:00:28.763Z,74.92
2023-03-08T04:01:31.623Z,74.87
2023-03-08T04:02:33.726Z,74.70
2023-03-08T04:03:35.686Z,74.56
2023-03-08T04:04:37.717Z,75.32
2023-03-08T04:05:40.386Z,76.07
2023-03-08T04:06:42.301Z,75.88
2023-03-08T04:07:44.263Z,76.35
2023-03-08T04:08:46.683Z,76.40
2023-03-08T04:09:48.846Z,76.37
2023-03-08T04:10:50.777Z,76.74
2023-03-08T04:11:52.664Z,76.75
2023-03-08T04:12:54.461Z,76.62
2023-03-08T04:13:56.342Z,76.86
2023-03-08T04:14:58.185Z,76.94
2023-03-08T04:16:00.192Z,77.04
2023-03-08T04:17:02.114Z,77.17
2023-03-08T04:18:04.025Z,77.26
2023-03-08T04:19:07.459Z,77.53
2023-03-08T04:20:09.594Z,77.60
2023-03-08T04:21:11.932Z,77.42
2023-03-08T04:22:13.790Z,76.99
2023-03-08T04:23:15.722Z,76.97
2023-03-08T04:24:17.615Z,76.67
2023-03-08T04:25:19.557Z,76.57
2023-03-08T04:26:21.620Z,76.38
2023-03-08T04:27:23.594Z,76.99
2023-03-08T04:28:25.467Z,76.84
2023-03-08T04:29:27.369Z,76.80
2023-03-08T04:30:30.935Z,77.01
2023-03-08T04:31:35.246Z,76.77
2023-03-08T04:32:37.109Z,76.68
2023-03-08T04:33:38.930Z,76.70
2023-03-08T04:34:40.868Z,76.65
2023-03-08T04:35:42.892Z,76.89
2023-03-08T04:36:44.787Z,76.61
2023-03-08T04:37:49.373Z,76.54
2023-03-08T04:38:51.959Z,76.73
2023-03-08T04:39:53.814Z,76.16
2023-03-08T04:41:13.790Z,75.65
2023-03-08T04:42:15.673Z,75.12
2023-03-08T04:43:17.502Z,75.19
2023-03-08T04:44:19.426Z,75.43
2023-03-08T04:45:21.356Z,75.91
2023-03-08T04:46:25.449Z,76.08
2023-03-08T04:47:27.330Z,76.32
2023-03-08T04:48:29.357Z,76.59
2023-03-08T04:49:31.190Z,76.34
2023-03-08T04:50:33.126Z,76.65
2023-03-08T04:51:35.077Z,76.85
2023-03-08T04:52:37.004Z,76.83
2023-03-08T04:53:39.598Z,76.67
2023-03-08T04:54:41.555Z,76.75
2023-03-08T04:55:43.493Z,76.74
2023-03-08T04:56:45.446Z,76.12
2023-03-08T04:57:47.249Z,75.95
2023-03-08T04:58:49.559Z,75.82
2023-03-08T04:59:51.832Z,75.95
2023-03-08T05:00:53.743Z,76.07
2023-03-08T05:01:55.689Z,75.73
2023-03-08T05:02:57.554Z,76.08
2023-03-08T05:03:59.901Z,76.72
2023-03-08T05:05:02.044Z,76.32
2023-03-08T05:06:04.099Z,76.59
2023-03-08T05:07:06.001Z,76.87
2023-03-08T05:08:07.802Z,77.87
2023-03-08T05:09:09.765Z,77.79
2023-03-08T05:10:11.729Z,77.82
2023-03-08T05:11:17.988Z,77.90
2023-03-08T05:12:19.855Z,77.73
2023-03-08T05:13:21.734Z,78.14
2023-03-08T05:14:23.553Z,78.26
2023-03-08T05:15:25.529Z,77.87
2023-03-08T05:16:27.563Z,77.87
2023-03-08T05:17:29.424Z,78.22
2023-03-08T05:18:31.542Z,78.13
2023-03-08T05:19:33.392Z,78.15
2023-03-08T05:20:35.341Z,77.87
2023-03-08T05:21:37.195Z,77.97
2023-03-08T05:22:55.019Z,78.48
2023-03-08T05:24:00.360Z,78.74
2023-03-08T05:25:02.195Z,78.78
2023-03-08T05:26:05.507Z,78.77
2023-03-08T05:27:07.961Z,78.63
2023-03-08T05:28:09.768Z,78.84
2023-03-08T05:29:11.810Z,78.73
2023-03-08T05:30:13.838Z,78.32
2023-03-08T05:31:16.931Z,78.29
2023-03-08T05:32:18.910Z,78.00
2023-03-08T05:33:20.832Z,77.71
2023-03-08T05:34:22.754Z,77.61
2023-03-08T05:35:24.659Z,77.37
2023-03-08T05:36:26.647Z,77.83
2023-03-08T05:37:28.592Z,78.02
2023-03-08T05:38:30.379Z,77.77
2023-03-08T05:39:32.330Z,77.97
2023-03-08T05:40:34.180Z,78.07
2023-03-08T05:41:36.096Z,77.65
2023-03-08T05:42:38.073Z,77.61
2023-03-08T05:43:40.220Z,77.77
2023-03-08T05:44:42.108Z,77.65
2023-03-08T05:45:44.823Z,77.83
2023-03-08T05:46:46.702Z,77.86
2023-03-08T05:47:48.538Z,77.86
2023-03-08T05:48:50.431Z,77.82
2023-03-08T05:49:52.597Z,77.80
2023-03-08T05:50:54.640Z,77.54
2023-03-08T05:51:56.537Z,77.13
2023-03-08T05:52:58.423Z,77.28
2023-03-08T05:54:00.242Z,77.30
2023-03-08T05:55:02.158Z,77.38
2023-03-08T05:56:12.923Z,77.45
2023-03-08T05:57:14.754Z,77.28
2023-03-08T05:58:16.739Z,76.84
2023-03-08T05:59:18.867Z,76.87
2023-03-08T06:00:20.940Z,76.63
2023-03-08T06:01:24.339Z,76.52
2023-03-08T06:02:26.233Z,76.90
2023-03-08T06:03:28.162Z,76.56
2023-03-08T06:04:30.018Z,76.65
2023-03-08T06:05:32.765Z,76.63
2023-03-08T06:06:35.022Z,76.97
2023-03-08T06:07:36.983Z,76.83
2023-03-08T06:08:39.369Z,77.16
2023-03-08T06:09:41.313Z,76.90
2023-03-08T06:10:43.257Z,76.98
2023-03-08T06:11:45.148Z,77.49
2023-03-08T06:12:47.067Z,77.55
2023-03-08T06:13:48.905Z,77.62
2023-03-08T06:14:50.887Z,77.67
2023-03-08T06:15:59.007Z,77.87
2023-03-08T06:17:01.017Z,77.93
2023-03-08T06:18:03.055Z,77.77
2023-03-08T06:19:04.831Z,77.53
2023-03-08T06:20:07.289Z,77.07
2023-03-08T06:21:11.607Z,77.10
2023-03-08T06:22:15.744Z,77.30
2023-03-08T06:23:17.475Z,77.27
2023-03-08T06:24:19.296Z,77.29
2023-03-08T06:25:21.281Z,77.51
2023-03-08T06:26:23.292Z,77.54
2023-03-08T06:27:25.351Z,77.60
2023-03-08T06:28:28.093Z,77.83
2023-03-08T06:29:30.153Z,77.52
2023-03-08T06:30:32.061Z,77.38
2023-03-08T06:31:34.104Z,77.02
2023-03-08T06:32:37.827Z,76.91
2023-03-08T06:33:39.817Z,77.35
2023-03-08T06:34:41.817Z,77.48
2023-03-08T06:35:43.865Z,77.28
2023-03-08T06:36:45.827Z,77.51
2023-03-08T06:37:47.764Z,77.73
2023-03-08T06:38:50.096Z,77.63
2023-03-08T06:39:51.947Z,77.87
2023-03-08T06:40:53.886Z,77.63
2023-03-08T06:41:55.802Z,77.55
2023-03-08T06:42:57.640Z,77.89
2023-03-08T06:43:59.564Z,77.98
2023-03-08T06:45:01.466Z,77.77
2023-03-08T06:46:04.320Z,77.79
2023-03-08T06:47:06.228Z,77.32
2023-03-08T06:48:08.280Z,77.82
2023-03-08T06:49:10.072Z,77.90
2023-03-08T06:50:12.122Z,77.79
2023-03-08T06:51:14.135Z,78.20
2023-03-08T06:52:16.025Z,78.36
2023-03-08T06:53:17.890Z,78.15
2023-03-08T06:54:20.348Z,78.23
2023-03-08T06:55:22.691Z,78.17
2023-03-08T06:56:24.724Z,78.17
2023-03-08T06:57:26.609Z,78.23
2023-03-08T06:58:28.564Z,78.13
2023-03-08T06:59:30.469Z,77.93
2023-03-08T07:00:32.982Z,77.95
2023-03-08T07:01:34.843Z,77.95
2023-03-08T07:02:36.931Z,77.76
2023-03-08T07:03:38.943Z,77.58
2023-03-08T07:04:40.848Z,77.57
2023-03-08T07:05:42.715Z,77.81
2023-03-08T07:06:44.995Z,77.68
2023-03-08T07:07:46.988Z,77.71
2023-03-08T07:08:48.880Z,77.65
2023-03-08T07:09:50.859Z,77.54
2023-03-08T07:10:53.107Z,77.42
2023-03-08T07:11:55.045Z,76.96
2023-03-08T07:12:56.999Z,77.02
2023-03-08T07:13:59.628Z,77.04
2023-03-08T07:15:01.566Z,76.71
2023-03-08T07:16:07.770Z,76.65
2023-03-08T07:17:09.609Z,76.39
2023-03-08T07:18:11.587Z,76.76
2023-03-08T07:19:13.354Z,76.42
2023-03-08T07:20:22.491Z,76.35
2023-03-08T07:21:24.902Z,76.79
2023-03-08T07:22:26.788Z,76.40
2023-03-08T07:23:28.691Z,77.00
2023-03-08T07:24:30.582Z,76.59
2023-03-08T07:25:32.524Z,76.66
2023-03-08T07:26:34.384Z,76.57
2023-03-08T07:27:36.213Z,76.25
2023-03-08T07:28:38.162Z,76.32
2023-03-08T07:29:40.265Z,76.31
2023-03-08T07:30:50.383Z,76.11
2023-03-08T07:31:53.806Z,76.51
2023-03-08T07:32:55.771Z,76.51
2023-03-08T07:33:58.651Z,76.34
2023-03-08T07:35:00.522Z,76.43
2023-03-08T07:36:02.685Z,76.22
2023-03-08T07:37:04.638Z,76.61
2023-03-08T07:38:06.527Z,76.47
2023-03-08T07:39:08.446Z,76.26
2023-03-08T07:40:11.310Z,76.11
2023-03-08T07:41:13.554Z,76.14
2023-03-08T07:42:15.381Z,76.35
2023-03-08T07:43:17.236Z,76.30
2023-03-08T07:44:19.157Z,76.55
2023-03-08T07:45:20.994Z,76.17
2023-03-08T07:46:23.202Z,76.45
2023-03-08T07:47:25.112Z,76.24
2023-03-08T07:48:27.136Z,76.36
2023-03-08T07:49:29.042Z,76.62
2023-03-08T07:50:30.913Z,75.64
2023-03-08T07:51:32.877Z,74.88
2023-03-08T07:52:34.826Z,75.71
2023-03-08T07:53:37.400Z,74.97
2023-03-08T07:54:39.427Z,75.89
2023-03-08T07:55:41.302Z,75.22
2023-03-08T07:56:43.468Z,75.51
2023-03-08T07:57:45.321Z,75.87
2023-03-08T07:58:47.302Z,75.57
2023-03-08T07:59:52.311Z,75.55
2023-03-08T08:00:55.434Z,75.08
2023-03-08T08:01:57.398Z,74.47
2023-03-08T08:02:59.295Z,74.07
2023-03-08T08:04:01.259Z,73.95
2023-03-08T08:05:05.072Z,74.07
2023-03-08T08:06:07.445Z,73.88
2023-03-08T08:07:15.338Z,73.56
2023-03-08T08:08:17.281Z,74.20
2023-03-08T08:09:19.179Z,73.95
2023-03-08T08:10:21.015Z,73.66
2023-03-08T08:11:22.991Z,72.90
2023-03-08T08:12:24.972Z,73.27
2023-03-08T08:13:26.901Z,72.55
2023-03-08T08:14:28.811Z,72.90
2023-03-08T08:15:31.230Z,72.44
2023-03-08T08:16:33.248Z,71.20
2023-03-08T08:17:35.373Z,71.95
2023-03-08T08:18:37.258Z,72.00
2023-03-08T08:19:39.085Z,71.25
2023-03-08T08:20:40.977Z,71.11
2023-03-08T08:21:42.810Z,70.41
2023-03-08T08:22:44.839Z,70.09
2023-03-08T08:23:47.013Z,70.17
2023-03-08T08:24:48.962Z,69.26
2023-03-08T08:25:50.858Z,69.15
2023-03-08T08:26:52.752Z,69.53
2023-03-08T08:27:54.686Z,68.51
2023-03-08T08:28:56.551Z,69.28
2023-03-08T08:29:59.644Z,67.76
2023-03-08T08:31:03.000Z,67.08
2023-03-08T08:32:05.234Z,67.04
2023-03-08T08:33:07.200Z,67.42
2023-03-08T08:34:09.091Z,67.74
2023-03-08T08:35:11.148Z,66.28
2023-03-08T08:36:14.216Z,65.57
2023-03-08T08:37:16.117Z,65.63
2023-03-08T08:38:18.052Z,65.84
2023-03-08T08:39:19.910Z,66.43
2023-03-08T08:40:21.909Z,66.41
2023-03-08T08:41:24.575Z,66.31
2023-03-08T08:42:26.808Z,66.90
2023-03-08T08:43:29.573Z,65.19
2023-03-08T08:44:31.477Z,66.33
2023-03-08T08:45:33.426Z,66.10
2023-03-08T08:46:35.510Z,65.33
2023-03-08T08:47:37.390Z,65.58
2023-03-08T08:48:40.149Z,65.65
2023-03-08T08:49:42.029Z,65.53
2023-03-08T08:50:44.027Z,65.76
2023-03-08T08:51:45.841Z,65.19
2023-03-08T08:52:47.777Z,65.29
2023-03-08T08:53:49.929Z,65.09
2023-03-08T08:54:52.871Z,64.86
2023-03-08T08:55:54.724Z,64.96
2023-03-08T08:56:56.639Z,65.90
2023-03-08T08:57:58.445Z,65.55
2023-03-08T08:59:01.312Z,65.23
2023-03-08T09:00:05.853Z,65.09
2023-03-08T09:01:19.312Z,64.50
2023-03-08T09:02:21.235Z,64.14
2023-03-08T09:03:25.097Z,65.09
2023-03-08T09:04:28.314Z,64.29
2023-03-08T09:05:30.885Z,63.82
2023-03-08T09:06:33.399Z,62.99
2023-03-08T09:07:36.427Z,63.60
2023-03-08T09:08:39.984Z,63.92
2023-03-08T09:09:41.851Z,63.40
2023-03-08T09:10:43.694Z,62.92
2023-03-08T09:11:54.762Z,62.38
2023-03-08T09:12:59.423Z,62.40
2023-03-08T09:14:02.838Z,63.96
2023-03-08T09:15:06.385Z,62.26
2023-03-08T09:16:18.884Z,62.87
2023-03-08T09:17:20.809Z,63.76
2023-03-08T09:18:22.708Z,62.88
2023-03-08T09:19:24.639Z,62.10
2023-03-08T09:20:26.566Z,62.56
2023-03-08T09:21:29.200Z,61.53
2023-03-08T09:22:31.201Z,62.02
2023-03-08T09:23:33.153Z,61.89
2023-03-08T09:24:35.040Z,62.08
2023-03-08T09:25:36.993Z,62.17
2023-03-08T09:26:39.221Z,60.78
2023-03-08T09:27:41.954Z,61.06
2023-03-08T09:28:44.400Z,61.02
2023-03-08T09:29:46.467Z,60.29
2023-03-08T09:30:48.496Z,59.20
2023-03-08T09:31:50.536Z,59.62
2023-03-08T09:32:52.645Z,60.40
2023-03-08T09:33:54.515Z,61.14
2023-03-08T09:34:58.489Z,60.17
2023-03-08T09:36:01.763Z,59.44
2023-03-08T09:37:04.465Z,59.58
2023-03-08T09:38:06.472Z,59.95
2023-03-08T09:39:12.435Z,59.51
2023-03-08T09:40:27.413Z,59.48
2023-03-08T09:41:45.952Z,59.16
2023-03-08T09:42:49.570Z,59.87
2023-03-08T09:44:09.941Z,59.17
2023-03-08T09:45:23.812Z,58.30
2023-03-08T09:46:31.281Z,58.11
2023-03-08T09:47:42.131Z,58.08
2023-03-08T09:48:47.927Z,58.15
2023-03-08T09:49:52.554Z,57.94
2023-03-08T09:50:57.665Z,58.40
2023-03-08T09:52:16.315Z,58.51
2023-03-08T09:53:18.191Z,58.88
2023-03-08T09:54:22.352Z,57.45
2023-03-08T09:55:35.399Z,58.41
2023-03-08T09:56:57.427Z,58.01
2023-03-08T09:58:05.874Z,57.38
2023-03-08T09:59:17.198Z,57.53
2023-03-08T10:00:24.306Z,57.89
2023-03-08T10:01:39.255Z,58.96
2023-03-08T10:02:48.077Z,58.55
2023-03-08T10:04:08.566Z,58.20
2023-03-08T10:05:22.342Z,58.03
2023-03-08T10:06:37.361Z,57.63
2023-03-08T10:07:54.350Z,56.63
2023-03-08T10:09:18.580Z,55.58
2023-03-08T10:10:23.269Z,56.99
2023-03-08T10:11:25.446Z,54.99
2023-03-08T10:12:30.885Z,53.65
2023-03-08T10:13:36.924Z,53.77
2023-03-08T10:14:58.842Z,53.56
2023-03-08T10:16:03.806Z,53.19
2023-03-08T10:17:17.995Z,54.00
2023-03-08T10:18:31.238Z,53.59
2023-03-08T10:19:42.587Z,54.36
2023-03-08T10:20:44.510Z,52.78
2023-03-08T10:21:47.363Z,53.55
2023-03-08T10:22:54.026Z,52.87
2023-03-08T10:23:59.265Z,52.64
2023-03-08T10:25:31.837Z,52.47
2023-03-08T10:26:33.852Z,51.78
2023-03-08T10:27:35.913Z,52.12
2023-03-08T10:28:38.235Z,52.38
2023-03-08T10:29:40.237Z,52.58
2023-03-08T10:30:46.877Z,52.40
2023-03-08T10:31:48.819Z,51.79
2023-03-08T10:32:52.035Z,51.75
2023-03-08T10:34:14.634Z,52.36
2023-03-08T10:35:17.099Z,52.52
2023-03-08T10:36:20.566Z,52.93
2023-03-08T10:37:24.228Z,53.05
2023-03-08T10:38:30.835Z,52.77
2023-03-08T10:39:32.665Z,52.87
2023-03-08T10:40:34.555Z,51.52
2023-03-08T10:41:46.024Z,53.05
2023-03-08T10:43:01.386Z,52.41
2023-03-08T10:44:04.281Z,51.83
2023-03-08T10:45:17.341Z,52.51
2023-03-08T10:46:24.027Z,52.24
2023-03-08T10:47:28.357Z,52.24
2023-03-08T10:48:30.381Z,51.78
2023-03-08T10:49:32.263Z,51.61
2023-03-08T10:50:38.441Z,50.56
2023-03-08T10:51:40.334Z,51.44
2023-03-08T10:52:42.873Z,51.96
2023-03-08T10:54:02.934Z,51.77
2023-03-08T10:55:11.885Z,51.61
2023-03-08T10:56:23.459Z,49.74
2023-03-08T10:57:26.451Z,51.15
2023-03-08T10:58:31.781Z,49.25
2023-03-08T10:59:34.684Z,48.71
2023-03-08T11:00:52.382Z,48.92
2023-03-08T11:01:56.275Z,48.83
2023-03-08T11:03:18.515Z,49.78
2023-03-08T11:04:21.869Z,49.44
2023-03-08T11:05:26.812Z,49.84
2023-03-08T11:06:29.425Z,49.88
2023-03-08T11:07:32.767Z,49.89
2023-03-08T11:08:36.234Z,49.92
2023-03-08T11:09:38.103Z,49.66
2023-03-08T11:10:39.975Z,49.71
2023-03-08T11:11:43.115Z,49.84
2023-03-08T11:12:45.866Z,49.62
2023-03-08T11:13:48.972Z,49.32
2023-03-08T11:14:51.640Z,49.59
2023-03-08T11:16:07.049Z,49.95
2023-03-08T11:17:18.149Z,49.68
2023-03-08T11:18:28.607Z,50.02
2023-03-08T11:19:49.643Z,48.88
2023-03-08T11:20:59.793Z,49.25
2023-03-08T11:22:20.451Z,50.17
2023-03-08T11:23:27.218Z,46.46
2023-03-08T11:24:32.457Z,47.28
2023-03-08T11:25:37.496Z,47.62
2023-03-08T11:26:45.020Z,48.32
2023-03-08T11:27:46.881Z,47.38
2023-03-08T11:28:48.721Z,46.05
2023-03-08T11:30:11.696Z,46.64
2023-03-08T11:31:27.653Z,47.08
2023-03-08T11:32:35.572Z,46.12
2023-03-08T11:33:56.574Z,44.24
2023-03-08T11:34:58.522Z,44.34
2023-03-08T11:36:05.998Z,43.71
2023-03-08T11:37:22.921Z,43.97
2023-03-08T11:38:25.998Z,43.89
2023-03-08T11:39:33.730Z,43.54
2023-03-08T11:40:54.272Z,43.25
2023-03-08T11:42:05.474Z,43.30
2023-03-08T11:43:07.411Z,43.37
2023-03-08T11:44:21.440Z,42.92
2023-03-08T11:45:27.250Z,42.00
2023-03-08T11:46:54.085Z,41.11
2023-03-08T11:48:08.822Z,42.21
2023-03-08T11:49:23.549Z,42.75
2023-03-08T11:50:38.371Z,43.66
2023-03-08T11:51:54.269Z,43.79
2023-03-08T11:53:14.818Z,42.87
2023-03-08T11:54:17.016Z,42.19
2023-03-08T11:55:28.089Z,42.52
2023-03-08T11:56:37.277Z,42.10
2023-03-08T11:57:40.956Z,42.07
2023-03-08T11:58:49.186Z,40.08
2023-03-08T12:00:01.472Z,40.19
2023-03-08T12:01:07.277Z,39.93
2023-03-08T12:02:10.613Z,40.50
2023-03-08T12:03:15.310Z,40.16
2023-03-08T12:04:25.455Z,40.57
2023-03-08T12:05:29.921Z,40.01
2023-03-08T12:06:35.972Z,40.50
2023-03-08T12:07:40.265Z,40.43
2023-03-08T12:08:54.412Z,40.63
2023-03-08T12:10:01.224Z,40.37
2023-03-08T12:11:10.237Z,41.26
2023-03-08T12:12:20.177Z,40.52
2023-03-08T12:13:42.346Z,40.89
2023-03-08T12:14:55.577Z,41.33
2023-03-08T12:16:07.581Z,39.67
2023-03-08T12:17:20.584Z,40.94
2023-03-08T12:18:32.779Z,40.28
2023-03-08T12:19:41.137Z,41.60
2023-03-08T12:20:43.811Z,40.46
2023-03-08T12:22:02.379Z,41.39
2023-03-08T12:23:07.178Z,42.29
2023-03-08T12:24:12.284Z,42.39
2023-03-08T12:25:26.933Z,40.84
2023-03-08T12:26:33.604Z,40.65
2023-03-08T12:27:41.904Z,41.06
2023-03-08T12:28:47.298Z,40.04
2023-03-08T12:29:56.744Z,40.42
2023-03-08T12:31:04.059Z,40.77
2023-03-08T12:32:06.814Z,39.82
2023-03-08T12:33:11.545Z,40.75
2023-03-08T12:34:33.658Z,42.06
2023-03-08T12:35:36.994Z,40.99
2023-03-08T12:36:41.585Z,40.13
2023-03-08T12:37:43.630Z,40.33
2023-03-08T12:38:47.026Z,40.92
2023-03-08T12:40:01.271Z,41.54
2023-03-08T12:41:07.420Z,41.02
2023-03-08T12:42:12.266Z,41.16
2023-03-08T12:43:34.368Z,42.12
2023-03-08T12:44:36.319Z,41.17
2023-03-08T12:45:39.344Z,41.00
2023-03-08T12:47:02.363Z,40.75
2023-03-08T12:48:05.396Z,41.42
2023-03-08T12:49:18.787Z,41.94
2023-03-08T12:50:20.698Z,41.88
2023-03-08T12:51:33.336Z,41.27
2023-03-08T12:52:35.838Z,41.32
2023-03-08T12:53:37.780Z,41.37
2023-03-08T12:54:39.837Z,42.07
2023-03-08T12:55:42.056Z,42.89
2023-03-08T12:56:51.688Z,41.79
2023-03-08T12:57:55.086Z,42.47
2023-03-08T12:58:56.978Z,42.72
2023-03-08T13:00:00.927Z,42.54
2023-03-08T13:01:07.538Z,42.24
2023-03-08T13:02:27.704Z,43.01
2023-03-08T13:03:37.413Z,43.89
2023-03-08T13:04:42.404Z,43.39
2023-03-08T13:05:47.641Z,42.22
2023-03-08T13:07:09.163Z,42.08
2023-03-08T13:08:14.085Z,42.27
2023-03-08T13:09:25.060Z,42.90
2023-03-08T13:10:30.511Z,44.02
2023-03-08T13:11:40.207Z,44.04
2023-03-08T13:13:00.154Z,44.04
2023-03-08T13:14:02.931Z,44.27
2023-03-08T13:15:22.389Z,44.43
2023-03-08T13:16:37.764Z,43.86
2023-03-08T13:17:49.020Z,43.42
2023-03-08T13:19:01.590Z,44.83
2023-03-08T13:20:21.726Z,45.11
2023-03-08T13:21:28.193Z,44.45
2023-03-08T13:22:50.375Z,45.06
2023-03-08T13:23:57.841Z,45.12
2023-03-08T13:25:07.160Z,44.91
2023-03-08T13:26:11.894Z,44.80
2023-03-08T13:27:22.298Z,44.64
2023-03-08T13:28:37.601Z,45.09
2023-03-08T13:29:47.378Z,45.31
2023-03-08T13:30:54.254Z,45.71
2023-03-08T13:31:56.568Z,45.68
2023-03-08T13:32:59.354Z,46.27
2023-03-08T13:34:01.179Z,46.34
2023-03-08T13:35:04.763Z,46.22
2023-03-08T13:36:14.959Z,46.44
2023-03-08T13:37:22.959Z,46.07
2023-03-08T13:38:26.170Z,45.54
2023-03-08T13:39:30.370Z,45.60
2023-03-08T13:40:32.406Z,46.86
2023-03-08T13:41:35.460Z,46.71
2023-03-08T13:42:37.276Z,47.39
2023-03-08T13:43:39.196Z,47.65
2023-03-08T13:44:41.062Z,47.32
2023-03-08T13:45:46.950Z,47.59
2023-03-08T13:46:50.145Z,47.20
2023-03-08T13:47:52.771Z,47.37